Time;durP1;ratioP1;P1;durP2;ratioP2;P2;SDS_P1;SDS_P2;PMS_P1;PMS_P2;Temp;Humidity;BMP_temperature;BMP_pressure;BME280_temperature;BME280_humidity;BME280_pressure;Samples;Min_cycle;Max_cycle;Signal;HPM_P1;HPM_P2
2022/07/30 00:02:15;;;;;;;3.55;1.30;;;15.60;99.90;;;;;;4993727;28;20113;-58
2022/07/30 00:04:41;;;;;;;4.82;1.40;;;15.50;99.90;;;;;;4991534;28;20034;-58
2022/07/30 00:07:07;;;;;;;2.97;1.40;;;15.50;99.90;;;;;;4989908;28;20073;-58
2022/07/30 00:09:33;;;;;;;1.75;1.20;;;15.60;99.90;;;;;;4979427;28;20081;-57
2022/07/30 00:11:59;;;;;;;2.80;1.40;;;15.60;99.90;;;;;;5001944;28;20038;-58
2022/07/30 00:14:25;;;;;;;2.55;1.30;;;15.50;99.90;;;;;;4992714;28;20040;-58
2022/07/30 00:16:52;;;;;;;2.72;1.00;;;15.50;99.90;;;;;;5001108;28;20120;-57
2022/07/30 00:19:19;;;;;;;2.30;1.00;;;15.40;99.90;;;;;;4992413;28;20042;-57
2022/07/30 00:21:45;;;;;;;3.95;1.00;;;15.40;99.90;;;;;;4996413;28;20045;-59
2022/07/30 00:24:11;;;;;;;3.83;1.30;;;15.30;99.90;;;;;;5004114;28;20033;-58
2022/07/30 00:26:37;;;;;;;2.80;1.00;;;15.30;99.90;;;;;;4990510;28;20092;-56
2022/07/30 00:29:03;;;;;;;3.67;1.38;;;15.20;99.90;;;;;;4989416;28;20034;-58
2022/07/30 00:31:29;;;;;;;3.95;1.17;;;15.20;99.90;;;;;;4994303;28;20022;-58
2022/07/30 00:33:55;;;;;;;1.52;1.15;;;15.10;99.90;;;;;;4993064;28;20026;-58
2022/07/30 00:36:21;;;;;;;1.27;1.00;;;15.10;99.90;;;;;;4995972;28;20031;-58
2022/07/30 00:38:47;;;;;;;4.03;1.00;;;15.20;99.90;;;;;;4990889;28;20180;-58
2022/07/30 00:41:13;;;;;;;2.65;1.20;;;15.20;99.90;;;;;;4995397;28;20359;-59
2022/07/30 00:43:38;;;;;;;1.85;1.17;;;15.20;99.90;;;;;;4994619;28;20465;-57
2022/07/30 00:46:04;;;;;;;5.28;1.08;;;15.20;99.90;;;;;;4996902;28;20088;-58
2022/07/30 00:48:30;;;;;;;2.28;0.90;;;15.10;99.90;;;;;;4989328;28;20077;-58
2022/07/30 00:50:55;;;;;;;2.35;1.30;;;15.10;99.90;;;;;;4997760;28;20477;-58
2022/07/30 00:53:21;;;;;;;3.67;1.40;;;15.10;99.90;;;;;;4996715;28;20474;-59
2022/07/30 00:55:47;;;;;;;2.28;1.17;;;15.10;99.90;;;;;;4992660;28;20026;-60
2022/07/30 00:58:12;;;;;;;3.38;1.58;;;15.10;99.90;;;;;;4990960;28;20568;-59
2022/07/30 01:00:38;;;;;;;4.03;1.27;;;15.20;99.90;;;;;;4995202;28;20417;-59
2022/07/30 01:03:04;;;;;;;2.78;1.30;;;15.20;99.90;;;;;;5003340;28;20048;-59
2022/07/30 01:05:29;;;;;;;2.55;0.98;;;15.10;99.90;;;;;;4994278;28;20366;-59
2022/07/30 01:07:55;;;;;;;3.17;1.13;;;15.10;99.90;;;;;;4989489;28;20113;-58
2022/07/30 01:10:21;;;;;;;2.95;1.30;;;15.00;99.90;;;;;;4994170;28;20034;-59
2022/07/30 01:12:47;;;;;;;4.47;1.42;;;14.90;99.90;;;;;;4987178;28;20157;-58
2022/07/30 01:15:13;;;;;;;3.80;1.38;;;14.90;99.90;;;;;;4995799;28;20026;-58
2022/07/30 01:17:39;;;;;;;1.60;1.10;;;14.90;99.90;;;;;;4998065;28;20134;-58
2022/07/30 01:20:16;;;;;;;4.28;1.77;;;14.80;99.90;;;;;;4987488;28;20038;-61
2022/07/30 01:23:07;;;;;;;4.00;1.63;;;14.70;99.90;;;;;;4993068;28;20042;-58
2022/07/30 01:25:55;;;;;;;7.63;1.50;;;14.80;99.90;;;;;;4990961;28;20039;-58
2022/07/30 01:28:26;;;;;;;3.17;1.20;;;14.80;99.90;;;;;;4989845;28;20081;-58
2022/07/30 01:30:53;;;;;;;3.80;1.73;;;14.70;99.90;;;;;;4990962;28;20106;-58
2022/07/30 01:33:22;;;;;;;2.97;1.40;;;14.70;99.90;;;;;;4993504;28;20031;-58
2022/07/30 01:35:49;;;;;;;6.00;1.50;;;14.70;99.90;;;;;;4992421;28;20121;-59
2022/07/30 01:38:20;;;;;;;6.35;1.52;;;14.70;99.90;;;;;;4993137;28;20104;-58
2022/07/30 01:40:48;;;;;;;4.03;1.67;;;14.70;99.90;;;;;;4992333;28;20022;-59
2022/07/30 01:43:15;;;;;;;3.20;1.27;;;14.70;99.90;;;;;;4998704;28;20395;-59
2022/07/30 01:45:41;;;;;;;3.25;1.77;;;14.60;99.90;;;;;;4999515;28;20404;-59
2022/07/30 01:48:09;;;;;;;6.60;2.28;;;14.50;99.90;;;;;;4993492;28;20157;-58
2022/07/30 01:50:37;;;;;;;2.63;1.58;;;14.40;99.90;;;;;;4998951;28;20117;-58
2022/07/30 01:53:04;;;;;;;2.92;1.85;;;14.30;99.90;;;;;;4994965;28;20173;-59
2022/07/30 01:55:34;;;;;;;4.85;2.95;;;14.30;99.90;;;;;;4996426;28;20033;-58
2022/07/30 01:58:01;;;;;;;3.08;1.75;;;14.40;99.90;;;;;;4994371;28;20061;-59
2022/07/30 02:00:29;;;;;;;4.88;1.92;;;14.40;99.90;;;;;;4997090;28;20034;-58
2022/07/30 02:02:56;;;;;;;3.35;1.85;;;14.40;99.90;;;;;;4999456;28;20021;-57
2022/07/30 02:05:23;;;;;;;4.38;1.65;;;14.40;99.90;;;;;;4997844;28;20126;-59
2022/07/30 02:07:56;;;;;;;4.60;1.80;;;14.30;99.90;;;;;;4998340;28;20034;-57
2022/07/30 02:10:40;;;;;;;2.97;1.90;;;14.20;99.90;;;;;;4996540;28;20034;-58
2022/07/30 02:13:07;;;;;;;5.15;1.90;;;14.20;99.90;;;;;;4992895;28;20483;-58
2022/07/30 02:15:44;;;;;;;3.40;2.05;;;14.20;99.90;;;;;;4998834;28;20085;-58
2022/07/30 02:18:20;;;;;;;3.38;1.75;;;14.10;99.90;;;;;;4983660;28;20101;-57
2022/07/30 02:21:00;;;;;;;2.60;2.03;;;14.10;99.90;;;;;;4999170;28;20489;-58
2022/07/30 02:23:28;;;;;;;2.25;1.77;;;14.10;99.90;;;;;;4996715;28;20062;-58
2022/07/30 02:25:57;;;;;;;4.60;2.17;;;14.10;99.90;;;;;;4995029;28;20066;-57
2022/07/30 02:28:25;;;;;;;5.15;2.38;;;14.10;99.90;;;;;;4987561;28;20358;-57
2022/07/30 02:30:54;;;;;;;6.07;2.20;;;14.00;99.90;;;;;;4995766;28;20486;-58
2022/07/30 02:33:23;;;;;;;2.78;1.90;;;14.00;99.90;;;;;;4992281;28;20371;-58
2022/07/30 02:35:50;;;;;;;4.30;2.15;;;14.10;99.90;;;;;;4994791;28;20030;-58
2022/07/30 02:38:19;;;;;;;3.60;1.75;;;14.10;99.90;;;;;;4992280;28;20093;-58
2022/07/30 02:40:46;;;;;;;3.33;2.38;;;14.10;99.90;;;;;;4995603;28;20031;-57
2022/07/30 02:43:14;;;;;;;4.88;2.50;;;13.90;99.90;;;;;;4990882;28;20050;-58
2022/07/30 02:45:41;;;;;;;3.97;2.50;;;13.90;99.90;;;;;;4997413;28;20108;-58
2022/07/30 02:48:09;;;;;;;5.25;2.03;;;13.90;99.90;;;;;;4990441;28;20039;-59
2022/07/30 02:50:35;;;;;;;5.90;2.80;;;13.90;99.90;;;;;;4994491;28;20414;-59
2022/07/30 02:53:03;;;;;;;4.35;2.15;;;13.90;99.90;;;;;;4998644;28;20038;-59
2022/07/30 02:55:32;;;;;;;4.20;2.45;;;13.90;99.90;;;;;;4996292;28;20057;-59
2022/07/30 02:57:58;;;;;;;5.50;3.20;;;13.90;99.90;;;;;;4992955;28;20041;-58
2022/07/30 03:00:25;;;;;;;4.70;3.10;;;13.90;99.90;;;;;;4994276;28;20038;-58
2022/07/30 03:02:53;;;;;;;3.97;3.10;;;13.90;99.90;;;;;;4996917;28;20018;-58
2022/07/30 03:05:20;;;;;;;4.10;3.15;;;13.80;99.90;;;;;;4999908;28;20503;-59
2022/07/30 03:07:46;;;;;;;3.97;3.05;;;13.60;99.90;;;;;;5000050;28;20034;-58
2022/07/30 03:10:13;;;;;;;3.60;2.90;;;13.60;99.90;;;;;;4992656;28;20027;-58
2022/07/30 03:12:43;;;;;;;5.03;2.88;;;13.60;99.90;;;;;;4996551;28;20030;-57
2022/07/30 03:15:09;;;;;;;5.82;3.58;;;13.60;99.90;;;;;;4991882;28;20142;-58
2022/07/30 03:17:43;;;;;;;5.55;2.92;;;13.60;99.90;;;;;;4992472;28;20073;-58
2022/07/30 03:20:12;;;;;;;7.10;2.92;;;13.60;99.90;;;;;;4991137;28;20117;-58
2022/07/30 03:22:43;;;;;;;5.97;3.10;;;13.60;99.90;;;;;;4992807;28;20022;-58
2022/07/30 03:25:11;;;;;;;7.38;3.28;;;13.60;99.90;;;;;;4992469;28;20041;-58
2022/07/30 03:27:38;;;;;;;5.65;3.17;;;13.60;99.90;;;;;;4997874;28;20080;-58
2022/07/30 03:30:06;;;;;;;3.58;2.92;;;13.50;99.90;;;;;;4997565;28;20034;-59
2022/07/30 03:32:33;;;;;;;3.20;2.35;;;13.40;99.90;;;;;;4999803;28;20363;-58
2022/07/30 03:34:59;;;;;;;4.78;2.55;;;13.50;99.90;;;;;;4999700;28;20100;-58
2022/07/30 03:37:30;;;;;;;6.57;2.80;;;13.50;99.90;;;;;;4996251;28;20434;-58
2022/07/30 03:39:59;;;;;;;5.45;3.92;;;13.50;99.90;;;;;;5001090;28;20065;-58
2022/07/30 03:42:26;;;;;;;4.50;3.10;;;13.40;99.90;;;;;;4995825;28;20104;-59
2022/07/30 03:44:52;;;;;;;6.53;3.05;;;13.30;99.90;;;;;;5001009;28;20449;-58
2022/07/30 03:47:20;;;;;;;7.85;2.90;;;13.20;99.90;;;;;;4997710;28;20030;-58
2022/07/30 03:49:46;;;;;;;4.90;3.00;;;13.00;99.90;;;;;;4995249;28;20034;-58
2022/07/30 03:52:12;;;;;;;4.65;3.75;;;12.90;99.90;;;;;;4995007;28;20457;-58
2022/07/30 03:54:38;;;;;;;5.85;3.13;;;12.80;99.90;;;;;;4991735;28;20034;-58
2022/07/30 03:57:05;;;;;;;7.95;3.17;;;12.80;99.90;;;;;;4998576;28;20390;-58
2022/07/30 03:59:31;;;;;;;6.65;3.20;;;12.70;99.90;;;;;;4996626;28;20133;-58
2022/07/30 04:02:02;;;;;;;5.78;3.58;;;12.60;99.90;;;;;;4991372;28;20033;-58
2022/07/30 04:04:29;;;;;;;5.07;3.45;;;12.60;99.90;;;;;;4994627;28;20034;-58
2022/07/30 04:06:57;;;;;;;6.78;3.35;;;12.50;99.90;;;;;;4993532;28;20034;-58
2022/07/30 04:09:24;;;;;;;6.28;3.53;;;12.40;99.90;;;;;;4995419;28;20030;-58
2022/07/30 04:11:50;;;;;;;4.72;3.28;;;12.40;99.90;;;;;;5001133;28;20030;-58
2022/07/30 04:14:16;;;;;;;3.40;3.10;;;12.40;99.90;;;;;;4992459;28;20113;-58
2022/07/30 04:16:53;;;;;;;4.32;3.40;;;12.30;99.90;;;;;;4996127;28;20117;-58
2022/07/30 04:19:24;;;;;;;5.78;3.40;;;12.30;99.90;;;;;;4993437;28;20121;-58
2022/07/30 04:21:52;;;;;;;4.05;2.80;;;12.30;99.90;;;;;;4998803;28;20026;-58
2022/07/30 04:24:19;;;;;;;5.28;3.08;;;12.30;99.90;;;;;;4992314;28;20030;-57
2022/07/30 04:26:46;;;;;;;4.65;3.20;;;12.40;99.90;;;;;;4989051;28;20026;-57
2022/07/30 04:29:12;;;;;;;8.27;3.75;;;12.30;99.90;;;;;;5003636;28;20029;-58
2022/07/30 04:31:39;;;;;;;5.78;3.63;;;12.30;99.90;;;;;;4993653;28;20026;-57
2022/07/30 04:34:05;;;;;;;6.30;3.35;;;12.40;99.90;;;;;;4989347;28;20042;-58
2022/07/30 04:36:32;;;;;;;8.20;3.92;;;12.30;99.90;;;;;;4999435;28;20023;-60
2022/07/30 04:38:58;;;;;;;7.35;3.67;;;12.40;99.90;;;;;;4999101;28;20100;-59
2022/07/30 04:41:24;;;;;;;4.80;3.50;;;12.30;99.90;;;;;;4988615;28;20023;-58
2022/07/30 04:43:51;;;;;;;6.25;3.30;;;12.40;99.90;;;;;;4998006;28;20422;-57
2022/07/30 04:46:16;;;;;;;4.93;3.20;;;12.50;99.90;;;;;;4998278;28;20390;-57
2022/07/30 04:48:42;;;;;;;4.00;3.60;;;12.60;99.90;;;;;;5002128;28;20036;-57
2022/07/30 04:51:16;;;;;;;4.93;3.63;;;12.60;99.90;;;;;;4990886;28;20031;-57
2022/07/30 04:53:44;;;;;;;5.13;3.55;;;12.70;99.90;;;;;;4999011;28;20030;-58
2022/07/30 04:56:10;;;;;;;6.30;4.25;;;12.80;99.90;;;;;;4989572;28;20038;-58
2022/07/30 04:58:36;;;;;;;6.22;3.55;;;12.80;99.90;;;;;;4999204;28;20041;-57
2022/07/30 05:01:03;;;;;;;5.90;3.80;;;12.80;99.90;;;;;;4991393;28;20038;-58
2022/07/30 05:03:30;;;;;;;5.97;4.18;;;12.90;99.90;;;;;;4987942;28;20121;-58
2022/07/30 05:05:57;;;;;;;8.93;4.00;;;13.00;99.90;;;;;;4991296;28;20077;-58
2022/07/30 05:08:27;;;;;;;8.93;4.30;;;13.00;99.90;;;;;;4993084;28;20036;-58
2022/07/30 05:10:53;;;;;;;7.95;3.67;;;13.10;99.90;;;;;;4998546;28;20026;-58
2022/07/30 05:13:19;;;;;;;3.60;3.30;;;13.20;99.90;;;;;;4996690;28;20691;-58
2022/07/30 05:15:45;;;;;;;4.30;3.30;;;13.40;99.90;;;;;;4989986;28;20117;-58
2022/07/30 05:18:11;;;;;;;6.70;3.65;;;13.40;99.90;;;;;;4993103;28;20048;-58
2022/07/30 05:20:37;;;;;;;7.50;3.63;;;13.40;99.90;;;;;;4990243;28;20072;-58
2022/07/30 05:23:03;;;;;;;6.28;4.30;;;13.40;99.90;;;;;;4995008;28;20031;-58
2022/07/30 05:25:29;;;;;;;8.93;4.80;;;13.40;99.90;;;;;;4993511;28;20390;-58
2022/07/30 05:27:56;;;;;;;5.15;4.00;;;13.50;99.90;;;;;;4991731;28;20475;-59
2022/07/30 05:30:23;;;;;;;4.78;3.78;;;13.60;99.90;;;;;;4989215;28;20042;-58
2022/07/30 05:32:49;;;;;;;6.28;4.03;;;13.70;99.90;;;;;;4995969;28;20038;-58
2022/07/30 05:35:14;;;;;;;5.95;4.30;;;13.80;99.90;;;;;;4991992;28;20026;-57
2022/07/30 05:37:40;;;;;;;6.80;4.45;;;13.80;99.90;;;;;;4989722;28;20506;-58
2022/07/30 05:40:06;;;;;;;7.88;4.38;;;14.00;99.90;;;;;;4999756;28;20042;-58
2022/07/30 05:42:32;;;;;;;6.95;4.32;;;14.10;99.90;;;;;;5001655;28;20081;-58
2022/07/30 05:44:59;;;;;;;4.93;4.40;;;14.10;99.90;;;;;;4991435;28;20399;-58
2022/07/30 05:47:25;;;;;;;5.32;4.47;;;14.10;99.90;;;;;;4992949;28;20098;-58
2022/07/30 05:49:51;;;;;;;6.68;4.75;;;14.30;99.90;;;;;;5004247;28;20474;-58
2022/07/30 05:52:17;;;;;;;8.75;5.90;;;14.40;99.90;;;;;;4988911;28;20029;-58
2022/07/30 05:54:43;;;;;;;9.95;5.32;;;14.50;99.90;;;;;;4990096;28;20117;-59
2022/07/30 05:57:09;;;;;;;7.07;4.47;;;14.50;99.90;;;;;;4988552;28;20030;-59
2022/07/30 05:59:34;;;;;;;7.03;4.88;;;14.70;99.90;;;;;;4994288;28;20041;-58
2022/07/30 06:02:01;;;;;;;8.23;4.97;;;14.90;99.90;;;;;;4991560;28;20058;-58
2022/07/30 06:04:28;;;;;;;9.35;5.72;;;14.90;99.90;;;;;;4993704;28;20117;-58
2022/07/30 06:06:54;;;;;;;8.77;5.15;;;15.00;99.90;;;;;;4988741;28;20109;-57
2022/07/30 06:09:20;;;;;;;7.57;5.28;;;15.20;99.90;;;;;;4986526;28;20117;-57
2022/07/30 06:11:45;;;;;;;11.43;5.28;;;15.30;99.90;;;;;;4985680;28;20030;-57
2022/07/30 06:14:11;;;;;;;9.55;5.78;;;15.40;99.90;;;;;;4987528;28;20045;-58
2022/07/30 06:16:37;;;;;;;10.07;5.05;;;15.40;99.90;;;;;;4989349;28;20482;-58
2022/07/30 06:19:03;;;;;;;9.10;5.07;;;15.60;99.90;;;;;;4989445;28;20045;-58
2022/07/30 06:21:28;;;;;;;9.40;5.20;;;15.70;99.90;;;;;;4988259;28;20023;-58
2022/07/30 06:23:54;;;;;;;6.05;4.80;;;15.80;99.90;;;;;;4988355;28;20445;-57
2022/07/30 06:26:20;;;;;;;6.78;4.72;;;16.00;99.90;;;;;;4988682;28;20181;-58
2022/07/30 06:28:45;;;;;;;7.80;4.35;;;16.10;99.90;;;;;;5001391;28;20040;-57
2022/07/30 06:31:11;;;;;;;7.95;4.53;;;16.20;99.90;;;;;;5000550;28;20026;-59
2022/07/30 06:33:38;;;;;;;7.47;4.35;;;16.30;99.90;;;;;;4988047;28;20363;-59
2022/07/30 06:36:04;;;;;;;7.30;4.68;;;16.30;99.90;;;;;;4987990;28;20054;-59
2022/07/30 06:38:29;;;;;;;9.48;4.88;;;16.40;99.90;;;;;;4999803;28;20036;-58
2022/07/30 06:40:56;;;;;;;7.15;5.15;;;16.40;99.90;;;;;;4992406;28;20038;-58
2022/07/30 06:43:21;;;;;;;7.90;5.53;;;16.40;99.90;;;;;;4990977;28;20486;-58
2022/07/30 06:45:47;;;;;;;7.30;4.72;;;16.40;99.90;;;;;;4992623;28;20077;-58
2022/07/30 06:48:13;;;;;;;9.65;5.28;;;16.40;99.90;;;;;;4991781;28;20034;-58
2022/07/30 06:50:40;;;;;;;11.63;6.30;;;16.40;99.90;;;;;;4991418;28;20035;-58
2022/07/30 06:53:06;;;;;;;15.93;6.20;;;16.50;99.90;;;;;;4987713;28;20026;-58
2022/07/30 06:55:32;;;;;;;8.05;5.00;;;16.60;99.90;;;;;;4990419;28;20088;-59
2022/07/30 06:57:58;;;;;;;7.43;5.05;;;16.60;99.90;;;;;;5002065;28;20038;-59
2022/07/30 07:00:24;;;;;;;9.88;5.78;;;16.60;99.90;;;;;;4995372;28;20030;-58
2022/07/30 07:02:50;;;;;;;10.77;5.43;;;16.60;99.90;;;;;;4984990;28;20031;-58
2022/07/30 07:05:15;;;;;;;8.32;5.95;;;16.50;99.90;;;;;;4995047;28;20030;-59
2022/07/30 07:07:41;;;;;;;11.40;5.18;;;16.50;99.90;;;;;;4991935;28;20113;-58
2022/07/30 07:10:07;;;;;;;11.95;6.75;;;16.60;99.90;;;;;;4987968;28;20026;-58
2022/07/30 07:12:33;;;;;;;11.35;6.30;;;16.60;99.90;;;;;;4994077;28;20025;-58
2022/07/30 07:14:59;;;;;;;11.40;6.30;;;16.80;99.90;;;;;;4994156;28;20039;-58
2022/07/30 07:17:24;;;;;;;9.07;5.45;;;16.90;99.90;;;;;;4989706;28;20018;-59
2022/07/30 07:19:50;;;;;;;10.68;7.03;;;17.10;99.90;;;;;;4991889;28;20034;-58
2022/07/30 07:22:15;;;;;;;11.27;8.40;;;17.20;99.90;;;;;;4989945;28;20018;-59
2022/07/30 07:24:41;;;;;;;13.70;8.23;;;17.40;99.90;;;;;;5000146;28;20389;-58
2022/07/30 07:27:07;;;;;;;14.23;8.48;;;17.60;99.90;;;;;;4988140;28;20406;-58
2022/07/30 07:29:32;;;;;;;10.13;7.35;;;17.90;99.90;;;;;;4991974;28;20505;-58
2022/07/30 07:31:58;;;;;;;11.55;8.18;;;18.10;99.90;;;;;;4990984;28;20026;-59
2022/07/30 07:34:24;;;;;;;13.32;9.32;;;18.30;99.90;;;;;;4989295;28;20521;-58
2022/07/30 07:36:49;;;;;;;11.82;7.65;;;18.50;99.90;;;;;;4988408;28;20034;-58
2022/07/30 07:39:15;;;;;;;14.00;8.90;;;18.70;99.90;;;;;;4989859;28;20045;-58
2022/07/30 07:41:41;;;;;;;15.80;8.38;;;18.90;99.90;;;;;;4997686;28;20030;-58
2022/07/30 07:44:06;;;;;;;17.88;9.95;;;19.10;99.90;;;;;;4989868;28;20387;-58
2022/07/30 07:46:32;;;;;;;16.98;9.98;;;19.30;99.90;;;;;;4992095;28;20080;-58
2022/07/30 07:48:58;;;;;;;14.45;9.25;;;19.50;99.90;;;;;;4993415;28;20049;-58
2022/07/30 07:51:24;;;;;;;18.33;10.18;;;19.70;99.90;;;;;;4998600;28;20061;-59
2022/07/30 07:53:49;;;;;;;13.10;9.85;;;19.80;99.90;;;;;;4992566;28;20494;-58
2022/07/30 07:56:15;;;;;;;16.70;9.82;;;19.90;99.90;;;;;;4980979;28;20100;-59
2022/07/30 07:58:41;;;;;;;15.63;10.38;;;20.00;99.90;;;;;;4985537;28;20425;-58
2022/07/30 08:01:06;;;;;;;16.77;9.43;;;20.10;99.90;;;;;;4990218;28;20034;-58
2022/07/30 08:03:32;;;;;;;14.60;10.55;;;20.10;99.90;;;;;;4991655;28;20033;-60
2022/07/30 08:06:00;;;;;;;13.02;9.30;;;20.20;99.90;;;;;;4991127;28;20057;-59
2022/07/30 08:08:26;;;;;;;11.50;8.48;;;20.10;99.90;;;;;;4989056;28;20026;-59
2022/07/30 08:10:52;;;;;;;13.68;8.98;;;20.20;99.90;;;;;;5000870;28;20557;-59
2022/07/30 08:13:17;;;;;;;12.13;9.02;;;20.20;99.90;;;;;;4996392;28;20029;-59
2022/07/30 08:15:43;;;;;;;15.07;8.98;;;20.20;99.90;;;;;;4991302;28;20034;-59
2022/07/30 08:18:10;;;;;;;12.40;8.73;;;20.20;99.90;;;;;;4987088;28;20038;-58
2022/07/30 08:20:38;;;;;;;11.32;8.55;;;20.10;99.90;;;;;;4992125;28;20497;-58
2022/07/30 08:23:05;;;;;;;10.45;8.40;;;20.20;99.90;;;;;;4992094;28;20545;-60
2022/07/30 08:25:30;;;;;;;11.45;7.20;;;20.30;99.90;;;;;;4982685;28;20036;-59
2022/07/30 08:27:57;;;;;;;12.75;7.55;;;20.30;99.90;;;;;;4992896;28;20026;-59
2022/07/30 08:30:23;;;;;;;11.95;6.82;;;20.50;99.90;;;;;;4989623;28;20026;-59
2022/07/30 08:32:48;;;;;;;11.77;7.00;;;20.80;99.90;;;;;;4987933;28;20022;-59
2022/07/30 08:35:19;;;;;;;12.95;7.43;;;20.90;99.90;;;;;;4996771;28;20034;-59
2022/07/30 08:37:45;;;;;;;10.13;7.18;;;20.90;99.90;;;;;;4988050;28;20085;-59
2022/07/30 08:40:12;;;;;;;12.75;6.68;;;21.00;99.90;;;;;;4987595;28;20038;-58
2022/07/30 08:42:38;;;;;;;12.93;6.25;;;21.20;99.90;;;;;;4995861;28;20030;-59
2022/07/30 08:45:05;;;;;;;10.07;6.18;;;21.40;99.90;;;;;;4992673;28;20026;-59
2022/07/30 08:47:32;;;;;;;10.27;5.30;;;21.50;99.90;;;;;;4992866;28;20545;-59
2022/07/30 08:50:04;;;;;;;8.23;4.45;;;21.70;99.90;;;;;;4990131;28;20026;-59
2022/07/30 08:52:34;;;;;;;6.95;4.57;;;21.80;99.90;;;;;;4989880;28;20046;-59
2022/07/30 08:55:00;;;;;;;8.05;4.40;;;21.90;99.90;;;;;;4995234;28;20027;-59
2022/07/30 08:57:29;;;;;;;10.60;4.78;;;22.00;99.90;;;;;;4993925;28;20482;-59
2022/07/30 08:59:56;;;;;;;15.68;4.15;;;21.90;99.90;;;;;;4989376;28;20394;-59
2022/07/30 09:02:22;;;;;;;6.85;3.38;;;22.00;99.90;;;;;;4987070;28;20030;-59
2022/07/30 09:04:47;;;;;;;6.72;3.92;;;22.20;99.90;;;;;;4992107;28;20026;-58
2022/07/30 09:07:13;;;;;;;5.78;3.92;;;22.30;99.90;;;;;;4993361;28;20073;-59
2022/07/30 09:09:39;;;;;;;8.55;7.38;;;22.50;99.90;;;;;;4994847;28;20038;-59
2022/07/30 09:12:32;;;;;;;5.20;2.67;;;22.60;99.90;;;;;;4991114;28;20026;-59
2022/07/30 09:15:08;;;;;;;8.75;2.80;;;22.70;99.90;;;;;;4986750;28;20026;-57
2022/07/30 09:17:48;;;;;;;6.55;3.35;;;22.60;99.90;;;;;;4987331;28;20100;-57
2022/07/30 09:20:15;;;;;;;5.43;3.20;;;22.50;99.90;;;;;;4981380;28;20411;-58
2022/07/30 09:22:45;;;;;;;8.23;3.58;;;22.50;99.90;;;;;;4988720;28;20034;-58
2022/07/30 09:25:11;;;;;;;8.18;3.83;;;22.60;99.90;;;;;;4982844;28;20026;-58
2022/07/30 09:27:48;;;;;;;8.63;3.53;;;22.60;99.90;;;;;;4989934;28;20041;-58
2022/07/30 09:30:15;;;;;;;5.80;3.15;;;22.60;99.90;;;;;;4989333;28;20061;-58
2022/07/30 09:32:47;;;;;;;6.25;3.13;;;22.60;99.90;;;;;;4982435;28;20038;-58
2022/07/30 09:35:13;;;;;;;;;;;22.40;99.90;;;;;;4987072;28;20042;-58
2022/07/30 09:37:39;;;;;;;6.40;3.15;;;22.40;99.90;;;;;;4988235;28;20004;-58
2022/07/30 09:40:16;;;;;;;11.73;4.65;;;22.70;99.90;;;;;;4990191;28;20044;-58
2022/07/30 09:42:43;;;;;;;6.90;3.17;;;22.70;99.90;;;;;;4988639;28;20022;-58
2022/07/30 09:45:11;;;;;;;5.03;3.25;;;22.60;99.90;;;;;;4987400;28;20777;-58
2022/07/30 09:47:43;;;;;;;6.22;3.53;;;22.70;99.90;;;;;;4989135;28;20104;-59
2022/07/30 09:50:14;;;;;;;10.45;2.88;;;22.80;99.90;;;;;;4986586;28;20081;-58
2022/07/30 09:52:45;;;;;;;7.85;3.05;;;22.80;99.90;;;;;;4987429;28;20074;-59
2022/07/30 09:55:12;;;;;;;3.17;2.15;;;22.80;99.90;;;;;;4986840;28;20052;-59
2022/07/30 09:58:08;;;;;;;4.03;2.65;;;22.70;99.90;;;;;;4990307;28;20505;-58
2022/07/30 10:00:35;;;;;;;6.32;2.20;;;22.20;99.90;;;;;;4990529;28;20046;-59
2022/07/30 10:03:20;;;;;;;3.42;2.40;;;22.30;99.90;;;;;;5000588;28;20502;-58
2022/07/30 10:05:54;;;;;;;6.18;2.72;;;22.30;99.90;;;;;;4994654;28;20023;-58
2022/07/30 10:08:20;;;;;;;7.28;2.60;;;22.30;99.90;;;;;;4991008;28;20117;-58
2022/07/30 10:10:48;;;;;;;4.57;2.30;;;22.60;99.90;;;;;;5004062;28;20026;-57
2022/07/30 10:13:15;;;;;;;6.30;2.58;;;22.90;99.90;;;;;;4993091;28;20501;-59
2022/07/30 10:15:43;;;;;;;6.85;2.40;;;23.20;99.90;;;;;;4997712;28;20064;-58
2022/07/30 10:18:09;;;;;;;9.25;2.10;;;23.50;99.90;;;;;;4996282;28;20065;-58
2022/07/30 10:20:35;;;;;;;3.53;2.33;;;23.50;99.90;;;;;;4992607;28;20042;-58
2022/07/30 10:23:01;;;;;;;6.75;2.35;;;23.50;99.90;;;;;;4996036;28;20548;-58
2022/07/30 10:25:27;;;;;;;6.13;2.47;;;23.40;99.90;;;;;;4995402;28;20038;-58
2022/07/30 10:27:53;;;;;;;5.30;2.30;;;23.40;99.90;;;;;;4993963;28;20386;-58
2022/07/30 10:30:19;;;;;;;6.32;2.65;;;23.20;99.90;;;;;;4990031;28;20085;-59
2022/07/30 10:32:45;;;;;;;6.90;2.75;;;23.20;99.90;;;;;;4995647;28;20030;-58
2022/07/30 10:35:12;;;;;;;8.63;2.63;;;23.30;99.90;;;;;;4995440;28;20045;-59
2022/07/30 10:37:42;;;;;;;8.23;2.92;;;23.50;99.90;;;;;;4992647;28;20030;-59
2022/07/30 10:40:17;;;;;;;4.45;2.10;;;23.60;99.90;;;;;;4995137;28;20376;-59
2022/07/30 10:43:22;;;;;;;10.48;2.58;;;23.90;99.90;;;;;;4997632;28;20033;-59
2022/07/30 10:46:14;;;;;;;4.28;2.28;;;24.20;99.90;;;;;;5028724;28;20406;-59
2022/07/30 10:48:40;;;;;;;8.55;2.47;;;24.50;99.90;;;;;;5029788;28;20033;-59
2022/07/30 10:51:06;;;;;;;10.70;2.72;;;25.00;99.90;;;;;;5029432;28;20041;-59
2022/07/30 10:53:33;;;;;;;6.57;2.50;;;25.20;99.90;;;;;;5029463;28;20028;-59
2022/07/30 10:56:25;;;;;;;5.75;2.88;;;25.10;99.90;;;;;;5028724;28;20132;-59
2022/07/30 10:59:07;;;;;;;5.25;2.45;;;25.00;99.90;;;;;;5025018;28;20046;-58
2022/07/30 11:01:48;;;;;;;6.38;2.30;;;25.10;99.90;;;;;;5029312;28;20485;-58
2022/07/30 11:04:21;;;;;;;7.85;2.15;;;25.10;99.90;;;;;;5026399;28;20108;-57
2022/07/30 11:06:48;;;;;;;5.32;2.20;;;24.90;99.90;;;;;;5029372;28;20068;-58
2022/07/30 11:09:35;;;;;;;3.95;2.00;;;25.00;99.90;;;;;;5027163;28;20137;-58
2022/07/30 11:12:02;;;;;;;6.38;2.22;;;24.90;99.90;;;;;;5028158;28;20033;-59
2022/07/30 11:14:46;;;;;;;7.53;2.35;;;25.00;99.90;;;;;;5026493;28;20465;-59
2022/07/30 11:17:13;;;;;;;5.97;2.35;;;24.90;99.90;;;;;;5027211;28;20056;-59
2022/07/30 11:20:08;;;;;;;6.50;2.10;;;25.10;99.90;;;;;;5027950;28;20033;-58
2022/07/30 11:22:37;;;;;;;5.55;1.90;;;25.20;99.90;;;;;;5006663;28;20041;-59
2022/07/30 11:25:08;;;;;;;5.75;1.80;;;25.10;99.90;;;;;;4992067;28;20110;-59
2022/07/30 11:27:45;;;;;;;3.80;1.40;;;25.50;99.90;;;;;;4996845;28;20156;-58
2022/07/30 11:30:20;;;;;;;6.53;1.88;;;25.80;99.90;;;;;;4983599;28;20041;-58
2022/07/30 11:32:51;;;;;;;5.15;1.33;;;25.80;99.90;;;;;;4991643;28;20165;-58
2022/07/30 11:35:23;;;;;;;4.45;1.20;;;26.00;99.90;;;;;;4992395;28;20038;-58
2022/07/30 11:38:08;;;;;;;6.85;1.33;;;26.10;98.50;;;;;;4989236;28;20026;-57
2022/07/30 11:40:49;;;;;;;4.47;1.85;;;26.20;99.00;;;;;;4998661;28;20035;-58
2022/07/30 11:43:22;;;;;;;2.47;1.42;;;26.10;99.90;;;;;;4987696;28;20115;-59
2022/07/30 11:46:03;;;;;;;6.78;1.48;;;26.10;99.90;;;;;;4996840;28;20022;-58
2022/07/30 11:48:29;;;;;;;6.85;1.70;;;26.10;99.70;;;;;;4994879;28;20045;-59
2022/07/30 11:50:55;;;;;;;7.53;1.65;;;26.30;99.90;;;;;;4995837;28;20030;-59
2022/07/30 11:53:21;;;;;;;2.20;1.50;;;26.30;99.90;;;;;;5000166;28;20034;-58
2022/07/30 11:55:52;;;;;;;3.33;1.67;;;26.20;99.50;;;;;;4997524;28;20033;-58
2022/07/30 11:58:31;;;;;;;6.60;1.60;;;26.30;99.30;;;;;;4986701;28;20046;-58
2022/07/30 12:01:05;;;;;;;5.97;1.88;;;26.20;99.10;;;;;;4993438;28;20057;-58
2022/07/30 12:03:31;;;;;;;2.63;1.20;;;26.10;99.40;;;;;;4982667;28;20047;-58
2022/07/30 12:06:08;;;;;;;7.47;1.65;;;26.00;99.80;;;;;;4998345;28;20379;-58
2022/07/30 12:08:46;;;;;;;5.97;1.55;;;25.80;99.90;;;;;;4984242;28;20112;-59
2022/07/30 12:11:12;;;;;;;3.92;1.50;;;26.10;99.90;;;;;;4988505;28;20117;-59
2022/07/30 12:13:39;;;;;;;3.72;1.90;;;26.10;98.70;;;;;;4990724;28;20053;-58
2022/07/30 12:16:12;;;;;;;6.75;1.70;;;26.10;99.30;;;;;;4995792;28;20029;-60
2022/07/30 12:18:38;;;;;;;4.18;1.60;;;26.20;99.90;;;;;;4990614;28;20038;-59
2022/07/30 12:21:07;;;;;;;3.72;1.40;;;26.20;99.90;;;;;;4997785;28;20040;-57
2022/07/30 12:23:34;;;;;;;6.03;1.80;;;26.20;99.90;;;;;;4993889;28;20034;-58
2022/07/30 12:26:00;;;;;;;3.97;1.35;;;26.20;99.90;;;;;;4992358;28;20041;-58
2022/07/30 12:28:28;;;;;;;4.05;1.33;;;25.80;99.90;;;;;;4987373;28;20117;-58
2022/07/30 12:30:55;;;;;;;5.47;1.73;;;26.00;99.90;;;;;;4992257;28;20120;-58
2022/07/30 12:33:22;;;;;;;3.08;1.40;;;26.00;99.90;;;;;;4993537;28;20367;-59
2022/07/30 12:35:57;;;;;;;4.50;1.00;;;26.30;99.50;;;;;;4993204;28;20026;-59
2022/07/30 12:38:24;;;;;;;3.67;1.17;;;26.50;99.90;;;;;;4993598;28;20061;-58
2022/07/30 12:40:49;;;;;;;2.20;0.93;;;26.70;99.90;;;;;;4998573;28;20019;-59
2022/07/30 12:43:15;;;;;;;3.47;1.23;;;26.50;98.10;;;;;;5001306;28;20039;-59
2022/07/30 12:45:41;;;;;;;1.20;0.60;;;26.00;98.80;;;;;;4984839;28;20117;-58
2022/07/30 12:48:10;;;;;;;3.83;1.10;;;25.70;99.90;;;;;;4994186;28;20125;-58
2022/07/30 12:50:36;;;;;;;5.45;1.10;;;25.80;99.90;;;;;;4997080;28;20030;-58
2022/07/30 12:53:02;;;;;;;2.00;1.00;;;26.00;99.30;;;;;;4996684;28;20487;-58